Cary, NC

5:49 AM EDT on September 28, 2016 (GMT -0400)
Harmony Subdivision II | | Change Station

Elev 335 ft 35.77 °N, 78.88 °W | Updated 6 seconds ago

Overcast
Overcast
68.9 °F
Feels Like 68.9 °F
N
0.0
Wind Variable Wind from NNW

Today
High -- | Low -- °F
--% Chance of Precip.
Yesterday
High -- | Low -- °F
Precip. -- in
Pressure 29.92 in
Visibility 7.0 miles
Clouds Mostly Cloudy 500 ft
Mostly Cloudy 4000 ft
Overcast 13000 ft
Dew Point 68.0 °F
Humidity 98%
Rainfall 0.00 in
Snow Depth Not available.
7:08 AM 7:02 PM
Waning Crescent, 6% visible
SPECI KRDU 280917Z 15003KT 7SM BKN005 BKN040 OVC130 21/21 A2992 RMK AO2 T02110206
Pressure 29.92 in
Visibility 7.0 miles
Clouds Mostly Cloudy 500 ft
Mostly Cloudy 4000 ft
Overcast 13000 ft
Dew Point 68.0 °F
Humidity 98%
Rainfall 0.00 in
Snow Depth Not available.
7:08 AM 7:02 PM
Waning Crescent, 6% visible
SPECI KRDU 280917Z 15003KT 7SM BKN005 BKN040 OVC130 21/21 A2992 RMK AO2 T02110206

10-Day Weather Forecast

Almanac

Astronomy

Sep. 28, 2016 Rise Set
Actual Time
Civil Twilight
Nautical Twilight
Astronomical Twilight
Moon
Length of Visible Light
Length of Day
Tomorrow will be .
, % of the Moon is Illuminated

Today's Extremes

State Highs State Lows

Community

WunderPhotos

Upload Photos

1,942,216 photos uploaded!

WunderBlog® & News

Nearby

Air Quality

  Air Quality AQ Index Pollutant
Not available.

Snow Depth

Station Depth Elevation

Earthquake Activity

City Distance Mag. Time & Date
Minimum magnitude displayed is 2.5.

Coastal Water Temperatures

Place Temperature

Stations

Nearby Weather Stations

Station Location Temp. Windchill Dew Point Humidity Wind Precip. Elev Updated Type
                   

Watches & Warnings

There are currently no watches in effect.